Item Display Status Humidity-temperature Sensor

Elevation Above Sea Level: 3 m

 

Deployed Sensor

  • Serial Number: 20351075
  • NDBC Property Number: 43284
  • Start Date: 7/23/2020 (13:16:04 Z)
  • End Date: Currently Active
Relative Humidity [%]     6 entries per hour
Showing data from 5/17/2022 (20:00:00 Z) to 5/16/2022 (00:00:01 Z)
Previous Next [ Day | 3-Days | 7-Days ]
First Last
Prev [ Day | 3-Days | 7-Days ] Next
First Last

Start Time:     :
End Time:     :     
Time (in GMT) :00 :50 :40 :30 :20 :10
Previous Next [ Day | 3-Days | 7-Days ]
First Last
Prev [ Day | 3-Days | 7-Days ] Next
First Last


123 => good data
MM => data is determined as missing
-- => data not received/configured
Back to Top Back to Top
5/17/2022 20:00 to 19:10 86.66 86.45 85.06 85.15 86.25 84.01
5/17/2022 19:00 to 18:10 84.75 85.52 84.38 85.17 84.98 86.10
5/17/2022 18:00 to 17:10 86.08 86.70 86.74 86.14 87.30 87.55
5/17/2022 17:00 to 16:10 88.42 88.75 87.76 87.47 88.21 87.82
5/17/2022 16:00 to 15:10 87.51 87.01 87.14 86.04 86.83 87.20
5/17/2022 15:00 to 14:10 87.36 87.55 88.07 88.01 88.09 87.47
5/17/2022 14:00 to 13:10 86.93 86.68 87.22 87.63 86.70 87.63
5/17/2022 13:00 to 12:10 87.82 87.22 87.76 88.61 88.59 87.45
5/17/2022 12:00 to 11:10 87.61 87.70 86.20 85.69 85.60 85.75
5/17/2022 11:00 to 10:10 86.18 86.25 87.36 87.39 87.45 88.01
5/17/2022 10:00 to 9:10 87.78 87.51 87.20 87.26 87.72 86.39
5/17/2022 09:00 to 8:10 87.03 86.33 87.16 86.97 86.93 86.49
5/17/2022 08:00 to 7:10 86.68 86.18 86.08 86.43 86.81 85.87
5/17/2022 07:00 to 6:10 86.56 86.16 86.47 86.62 86.95 86.74
5/17/2022 06:00 to 5:10 86.68 86.04 85.87 85.19 86.20 86.10
5/17/2022 05:00 to 4:10 87.28 85.50 85.17 84.79 87.03 86.16
5/17/2022 04:00 to 3:10 86.31 87.39 87.34 86.49 87.16 87.28
5/17/2022 03:00 to 2:10 86.31 86.97 86.62 87.32 87.49 86.85
5/17/2022 02:00 to 1:10 87.36 88.30 88.59 87.24 86.39 86.31
5/17/2022 01:00 to 0:10 87.47 88.15 87.59 88.09 87.76 86.45
5/17/2022 00:00 to 23:10 87.45 88.28 88.15 88.11 87.68 87.20
5/16/2022 23:00 to 22:10 86.45 87.28 87.05 86.62 85.56 87.63
5/16/2022 22:00 to 21:10 88.40 88.48 88.86 88.42 88.24 86.43
5/16/2022 21:00 to 20:10 86.66 86.70 86.95 86.49 85.79 86.14
5/16/2022 20:00 to 19:10 85.06 85.69 86.12 86.25 85.15 86.29
5/16/2022 19:00 to 18:10 85.87 86.25 86.16 86.76 85.77 86.95
5/16/2022 18:00 to 17:10 86.45 88.07 88.86 88.75 88.94 89.75
5/16/2022 17:00 to 16:10 88.67 89.33 89.54 88.71 89.29 88.34
5/16/2022 16:00 to 15:10 88.63 88.67 90.49 89.62 89.64 89.83
5/16/2022 15:00 to 14:10 90.23 91.12 90.37 90.14 89.81 90.95
5/16/2022 14:00 to 13:10 90.60 91.16 91.74 91.55 90.49 90.14
5/16/2022 13:00 to 12:10 90.14 90.81 91.49 91.43 90.70 89.81
5/16/2022 12:00 to 11:10 90.25 90.10 90.10 89.79 89.56 89.58
5/16/2022 11:00 to 10:10 89.56 89.02 89.38 89.77 89.87 89.19
5/16/2022 10:00 to 9:10 88.79 88.50 89.02 89.54 90.02 88.88
5/16/2022 09:00 to 8:10 88.77 88.67 88.53 88.28 88.28 88.44
5/16/2022 08:00 to 7:10 88.30 88.11 88.86 88.46 88.65 89.44
5/16/2022 07:00 to 6:10 88.92 87.95 89.54 88.61 89.33 89.48
5/16/2022 06:00 to 5:10 90.64 89.69 89.25 88.30 87.61 88.19
5/16/2022 05:00 to 4:10 88.77 89.19 89.06 89.23 89.77 89.46
5/16/2022 04:00 to 3:10 89.11 89.06 89.46 89.83 90.20 89.89
5/16/2022 03:00 to 2:10 89.27 89.67 88.94 90.00 90.16 90.97
5/16/2022 02:00 to 1:10 91.61 91.10 89.93 89.48 91.03 90.08
5/16/2022 01:00 to 0:10 90.37 90.68 91.39 91.63 90.33 90.23

 

 

 

Air Temperature [°C]     6 entries per hour
Showing data from 5/17/2022 (20:00:00 Z) to 5/16/2022 (00:00:01 Z)
Previous Next [ Day | 3-Days | 7-Days ]
First Last
Prev [ Day | 3-Days | 7-Days ] Next
First Last

Start Time:     :
End Time:     :     
Time (in GMT) :00 :50 :40 :30 :20 :10
Previous Next [ Day | 3-Days | 7-Days ]
First Last
Prev [ Day | 3-Days | 7-Days ] Next
First Last


123 => good data
MM => data is determined as missing
-- => data not received/configured
Back to Top Back to Top
5/17/2022 20:00 to 19:10 27.59 27.44 27.63 27.59 27.36 27.63
5/17/2022 19:00 to 18:10 27.60 27.43 27.67 27.50 27.53 27.36
5/17/2022 18:00 to 17:10 27.19 27.13 27.21 27.01 27.11 26.81
5/17/2022 17:00 to 16:10 27.05 27.06 27.10 27.12 27.00 27.03
5/17/2022 16:00 to 15:10 26.94 26.92 27.07 26.97 26.93 26.91
5/17/2022 15:00 to 14:10 27.00 26.87 27.09 27.09 26.95 26.98
5/17/2022 14:00 to 13:10 27.09 27.24 26.99 27.25 27.19 27.04
5/17/2022 13:00 to 12:10 27.24 27.23 27.26 27.23 27.22 27.25
5/17/2022 12:00 to 11:10 27.18 27.41 27.31 27.34 27.19 27.38
5/17/2022 11:00 to 10:10 27.31 27.37 27.44 27.44 27.43 27.54
5/17/2022 10:00 to 9:10 27.55 27.52 27.36 27.48 27.51 27.50
5/17/2022 09:00 to 8:10 27.60 27.48 27.61 27.49 27.60 27.47
5/17/2022 08:00 to 7:10 27.55 27.60 27.68 27.76 27.63 27.60
5/17/2022 07:00 to 6:10 27.50 27.58 27.64 27.56 27.66 27.53
5/17/2022 06:00 to 5:10 27.68 27.64 27.68 27.64 27.69 27.63
5/17/2022 05:00 to 4:10 27.89 27.69 27.74 27.74 27.80 27.83
5/17/2022 04:00 to 3:10 27.63 27.82 27.76 27.66 27.83 27.74
5/17/2022 03:00 to 2:10 27.62 27.59 27.66 27.64 27.62 27.76
5/17/2022 02:00 to 1:10 27.65 27.58 27.75 27.75 27.75 27.68
5/17/2022 01:00 to 0:10 27.70 27.75 27.66 27.77 27.70 27.78
5/17/2022 00:00 to 23:10 27.70 27.57 27.61 27.78 27.69 27.87
5/16/2022 23:00 to 22:10 27.61 27.78 27.86 27.68 27.75 27.66
5/16/2022 22:00 to 21:10 27.71 27.66 27.53 27.65 27.78 27.75
5/16/2022 21:00 to 20:10 27.84 27.80 27.79 27.84 27.87 27.82
5/16/2022 20:00 to 19:10 27.83 27.91 27.96 28.01 27.91 27.91
5/16/2022 19:00 to 18:10 27.68 27.86 27.90 28.01 27.96 27.95
5/16/2022 18:00 to 17:10 27.71 27.72 27.71 27.58 27.64 27.38
5/16/2022 17:00 to 16:10 27.46 27.42 27.29 27.50 27.46 27.34
5/16/2022 16:00 to 15:10 27.39 27.30 27.62 27.43 27.39 27.29
5/16/2022 15:00 to 14:10 27.37 27.16 27.33 27.32 27.35 27.25
5/16/2022 14:00 to 13:10 27.19 27.23 27.31 27.49 27.33 27.52
5/16/2022 13:00 to 12:10 27.29 27.34 27.35 27.38 27.42 27.34
5/16/2022 12:00 to 11:10 27.51 27.46 27.51 27.50 27.51 27.52
5/16/2022 11:00 to 10:10 27.50 27.66 27.52 27.52 27.63 27.57
5/16/2022 10:00 to 9:10 27.60 27.59 27.60 27.69 27.56 27.59
5/16/2022 09:00 to 8:10 27.61 27.53 27.67 27.66 27.65 27.73
5/16/2022 08:00 to 7:10 27.61 27.57 27.64 27.67 27.55 27.74
5/16/2022 07:00 to 6:10 27.60 27.51 27.55 27.62 27.46 27.57
5/16/2022 06:00 to 5:10 27.68 27.55 27.57 27.67 27.65 27.54
5/16/2022 05:00 to 4:10 27.56 27.64 27.63 27.56 27.61 27.62
5/16/2022 04:00 to 3:10 27.64 27.65 27.62 27.43 27.77 27.82
5/16/2022 03:00 to 2:10 27.62 27.57 27.61 27.60 27.63 27.78
5/16/2022 02:00 to 1:10 27.70 27.57 27.76 27.69 27.83 27.75
5/16/2022 01:00 to 0:10 27.65 27.77 27.54 27.45 27.80 27.65